sensor_id;sensor_type;location;lat;lon;timestamp;pressure;altitude;pressure_sealevel;temperature;humidity
24610;BME280;12758;47.890;11.694;2023-11-19T00:00:11;93842.78;;;5.09;100.00
24610;BME280;12758;47.890;11.694;2023-11-19T00:02:37;93841.09;;;5.13;100.00
24610;BME280;12758;47.890;11.694;2023-11-19T00:05:04;93846.00;;;5.11;100.00
24610;BME280;12758;47.890;11.694;2023-11-19T00:07:31;93843.53;;;4.96;100.00
24610;BME280;12758;47.890;11.694;2023-11-19T00:09:57;93842.53;;;4.92;100.00
24610;BME280;12758;47.890;11.694;2023-11-19T00:12:23;93824.19;;;4.94;100.00
24610;BME280;12758;47.890;11.694;2023-11-19T00:14:49;93819.94;;;4.93;100.00
24610;BME280;12758;47.890;11.694;2023-11-19T00:17:16;93813.50;;;4.75;100.00
24610;BME280;12758;47.890;11.694;2023-11-19T00:19:42;93800.19;;;4.65;100.00
24610;BME280;12758;47.890;11.694;2023-11-19T00:22:08;93802.19;;;4.59;100.00
24610;BME280;12758;47.890;11.694;2023-11-19T00:24:34;93797.00;;;4.63;100.00
24610;BME280;12758;47.890;11.694;2023-11-19T00:27:00;93787.47;;;4.71;100.00
24610;BME280;12758;47.890;11.694;2023-11-19T00:29:27;93788.47;;;4.75;100.00
24610;BME280;12758;47.890;11.694;2023-11-19T00:31:53;93786.88;;;4.74;100.00
24610;BME280;12758;47.890;11.694;2023-11-19T00:34:19;93777.72;;;4.75;100.00
24610;BME280;12758;47.890;11.694;2023-11-19T00:36:48;93773.38;;;4.79;100.00
24610;BME280;12758;47.890;11.694;2023-11-19T00:39:14;93773.25;;;4.70;100.00
24610;BME280;12758;47.890;11.694;2023-11-19T00:41:40;93761.38;;;4.71;100.00
24610;BME280;12758;47.890;11.694;2023-11-19T00:44:06;93762.19;;;4.72;100.00
24610;BME280;12758;47.890;11.694;2023-11-19T00:46:33;93763.13;;;4.62;100.00
24610;BME280;12758;47.890;11.694;2023-11-19T00:48:59;93755.22;;;4.71;100.00
24610;BME280;12758;47.890;11.694;2023-11-19T00:51:26;93757.06;;;4.89;100.00
24610;BME280;12758;47.890;11.694;2023-11-19T00:53:52;93744.63;;;4.93;100.00
24610;BME280;12758;47.890;11.694;2023-11-19T00:56:18;93749.63;;;5.00;100.00
24610;BME280;12758;47.890;11.694;2023-11-19T00:58:45;93738.59;;;5.01;100.00
24610;BME280;12758;47.890;11.694;2023-11-19T01:01:11;93746.06;;;5.04;100.00
24610;BME280;12758;47.890;11.694;2023-11-19T01:03:38;93743.97;;;5.01;100.00
24610;BME280;12758;47.890;11.694;2023-11-19T01:06:04;93750.63;;;5.04;100.00
24610;BME280;12758;47.890;11.694;2023-11-19T01:08:30;93738.19;;;5.08;100.00
24610;BME280;12758;47.890;11.694;2023-11-19T01:10:57;93740.56;;;5.09;100.00
24610;BME280;12758;47.890;11.694;2023-11-19T01:13:23;93740.38;;;5.06;100.00
24610;BME280;12758;47.890;11.694;2023-11-19T01:15:50;93744.38;;;5.08;100.00
24610;BME280;12758;47.890;11.694;2023-11-19T01:18:16;93741.56;;;5.13;100.00
24610;BME280;12758;47.890;11.694;2023-11-19T01:20:42;93737.00;;;5.14;100.00
24610;BME280;12758;47.890;11.694;2023-11-19T01:23:08;93741.56;;;5.13;100.00
24610;BME280;12758;47.890;11.694;2023-11-19T01:25:34;93735.19;;;5.09;100.00
24610;BME280;12758;47.890;11.694;2023-11-19T01:28:01;93736.50;;;5.12;100.00
24610;BME280;12758;47.890;11.694;2023-11-19T01:30:28;93745.38;;;5.12;100.00
24610;BME280;12758;47.890;11.694;2023-11-19T01:32:54;93733.72;;;5.17;100.00
24610;BME280;12758;47.890;11.694;2023-11-19T01:35:21;93738.00;;;5.18;100.00
24610;BME280;12758;47.890;11.694;2023-11-19T01:37:49;93726.44;;;5.18;100.00
24610;BME280;12758;47.890;11.694;2023-11-19T01:40:20;93735.00;;;5.20;100.00
24610;BME280;12758;47.890;11.694;2023-11-19T01:42:46;93724.25;;;5.20;100.00
24610;BME280;12758;47.890;11.694;2023-11-19T01:45:21;93720.47;;;5.21;100.00
24610;BME280;12758;47.890;11.694;2023-11-19T01:47:48;93727.44;;;5.22;100.00
24610;BME280;12758;47.890;11.694;2023-11-19T01:50:14;93721.06;;;5.18;100.00
24610;BME280;12758;47.890;11.694;2023-11-19T01:52:40;93721.28;;;5.21;100.00
24610;BME280;12758;47.890;11.694;2023-11-19T01:55:07;93720.69;;;5.24;100.00
24610;BME280;12758;47.890;11.694;2023-11-19T01:57:36;93705.91;;;5.22;100.00
24610;BME280;12758;47.890;11.694;2023-11-19T02:00:03;93703.16;;;5.27;100.00
24610;BME280;12758;47.890;11.694;2023-11-19T02:02:30;93699.84;;;5.30;100.00
24610;BME280;12758;47.890;11.694;2023-11-19T02:04:56;93698.16;;;5.34;100.00
24610;BME280;12758;47.890;11.694;2023-11-19T02:07:23;93692.56;;;5.30;100.00
24610;BME280;12758;47.890;11.694;2023-11-19T02:09:51;93698.16;;;5.34;100.00
24610;BME280;12758;47.890;11.694;2023-11-19T02:12:17;93699.84;;;5.44;100.00
24610;BME280;12758;47.890;11.694;2023-11-19T02:14:43;93703.34;;;5.44;100.00
24610;BME280;12758;47.890;11.694;2023-11-19T02:17:24;93701.75;;;5.43;100.00
24610;BME280;12758;47.890;11.694;2023-11-19T02:19:50;93692.06;;;5.42;100.00
24610;BME280;12758;47.890;11.694;2023-11-19T02:22:16;93685.78;;;5.47;100.00
24610;BME280;12758;47.890;11.694;2023-11-19T02:24:43;93681.72;;;5.49;100.00
24610;BME280;12758;47.890;11.694;2023-11-19T02:27:13;93671.03;;;5.44;100.00
24610;BME280;12758;47.890;11.694;2023-11-19T02:29:42;93661.25;;;5.48;100.00
24610;BME280;12758;47.890;11.694;2023-11-19T02:32:08;93659.22;;;5.68;100.00
24610;BME280;12758;47.890;11.694;2023-11-19T02:34:34;93647.47;;;5.64;100.00
24610;BME280;12758;47.890;11.694;2023-11-19T02:37:01;93635.69;;;5.73;100.00
24610;BME280;12758;47.890;11.694;2023-11-19T02:39:27;93633.31;;;5.72;100.00
24610;BME280;12758;47.890;11.694;2023-11-19T02:41:53;93625.94;;;5.64;100.00
24610;BME280;12758;47.890;11.694;2023-11-19T02:44:20;93618.66;;;5.64;100.00
24610;BME280;12758;47.890;11.694;2023-11-19T02:46:46;93625.09;;;5.77;100.00
24610;BME280;12758;47.890;11.694;2023-11-19T02:49:14;93623.34;;;5.72;100.00
24610;BME280;12758;47.890;11.694;2023-11-19T02:51:40;93610.56;;;5.78;100.00
24610;BME280;12758;47.890;11.694;2023-11-19T02:54:06;93618.66;;;5.78;100.00
24610;BME280;12758;47.890;11.694;2023-11-19T02:56:32;93617.16;;;5.72;100.00
24610;BME280;12758;47.890;11.694;2023-11-19T02:59:02;93610.16;;;5.71;100.00
24610;BME280;12758;47.890;11.694;2023-11-19T03:01:34;93588.38;;;5.81;100.00
24610;BME280;12758;47.890;11.694;2023-11-19T03:04:02;93586.34;;;5.78;100.00
24610;BME280;12758;47.890;11.694;2023-11-19T03:06:29;93584.00;;;5.85;100.00
24610;BME280;12758;47.890;11.694;2023-11-19T03:08:55;93579.59;;;5.89;100.00
24610;BME280;12758;47.890;11.694;2023-11-19T03:11:21;93572.13;;;5.86;100.00
24610;BME280;12758;47.890;11.694;2023-11-19T03:13:47;93579.81;;;5.93;100.00
24610;BME280;12758;47.890;11.694;2023-11-19T03:16:13;93574.31;;;5.84;100.00
24610;BME280;12758;47.890;11.694;2023-11-19T03:18:39;93563.44;;;5.89;100.00
24610;BME280;12758;47.890;11.694;2023-11-19T03:21:06;93565.44;;;5.97;100.00
24610;BME280;12758;47.890;11.694;2023-11-19T03:23:33;93564.94;;;5.95;100.00
24610;BME280;12758;47.890;11.694;2023-11-19T03:26:00;93564.22;;;5.90;100.00
24610;BME280;12758;47.890;11.694;2023-11-19T03:28:29;93554.66;;;5.97;100.00
24610;BME280;12758;47.890;11.694;2023-11-19T03:30:55;93559.28;;;6.05;100.00
24610;BME280;12758;47.890;11.694;2023-11-19T03:33:21;93565.19;;;6.07;100.00
24610;BME280;12758;47.890;11.694;2023-11-19T03:35:47;93555.72;;;6.19;100.00
24610;BME280;12758;47.890;11.694;2023-11-19T03:38:13;93555.22;;;6.70;100.00
24610;BME280;12758;47.890;11.694;2023-11-19T03:40:40;93541.44;;;6.72;100.00
24610;BME280;12758;47.890;11.694;2023-11-19T03:43:06;93553.00;;;6.41;100.00
24610;BME280;12758;47.890;11.694;2023-11-19T03:45:32;93544.09;;;7.03;100.00
24610;BME280;12758;47.890;11.694;2023-11-19T03:47:58;93547.59;;;7.21;100.00
24610;BME280;12758;47.890;11.694;2023-11-19T03:50:24;93550.06;;;6.91;100.00
24610;BME280;12758;47.890;11.694;2023-11-19T03:52:50;93550.09;;;7.00;100.00
24610;BME280;12758;47.890;11.694;2023-11-19T03:55:17;93552.59;;;6.88;100.00
24610;BME280;12758;47.890;11.694;2023-11-19T03:57:43;93545.25;;;6.71;100.00
24610;BME280;12758;47.890;11.694;2023-11-19T04:00:10;93538.50;;;6.60;100.00
24610;BME280;12758;47.890;11.694;2023-11-19T04:02:39;93526.78;;;6.56;100.00
24610;BME280;12758;47.890;11.694;2023-11-19T04:05:06;93530.06;;;6.92;100.00
24610;BME280;12758;47.890;11.694;2023-11-19T04:07:32;93517.09;;;7.03;100.00
24610;BME280;12758;47.890;11.694;2023-11-19T04:09:58;93518.34;;;7.06;100.00
24610;BME280;12758;47.890;11.694;2023-11-19T04:12:25;93530.84;;;6.93;100.00
24610;BME280;12758;47.890;11.694;2023-11-19T04:14:51;93539.66;;;7.16;100.00
24610;BME280;12758;47.890;11.694;2023-11-19T04:17:17;93537.91;;;7.29;100.00
24610;BME280;12758;47.890;11.694;2023-11-19T04:19:43;93541.28;;;7.34;100.00
24610;BME280;12758;47.890;11.694;2023-11-19T04:22:09;93554.78;;;7.43;100.00
24610;BME280;12758;47.890;11.694;2023-11-19T04:24:36;93549.56;;;7.73;100.00
24610;BME280;12758;47.890;11.694;2023-11-19T04:27:02;93556.88;;;7.72;100.00
24610;BME280;12758;47.890;11.694;2023-11-19T04:29:29;93554.97;;;7.64;100.00
24610;BME280;12758;47.890;11.694;2023-11-19T04:31:56;93564.00;;;7.33;100.00
24610;BME280;12758;47.890;11.694;2023-11-19T04:34:22;93544.50;;;7.71;100.00
24610;BME280;12758;47.890;11.694;2023-11-19T04:36:48;93557.59;;;7.20;100.00
24610;BME280;12758;47.890;11.694;2023-11-19T04:39:14;93566.19;;;7.22;100.00
24610;BME280;12758;47.890;11.694;2023-11-19T04:41:47;93558.69;;;7.11;100.00
24610;BME280;12758;47.890;11.694;2023-11-19T04:44:13;93559.91;;;7.62;100.00
24610;BME280;12758;47.890;11.694;2023-11-19T04:46:41;93554.31;;;7.50;100.00
24610;BME280;12758;47.890;11.694;2023-11-19T04:49:08;93577.22;;;7.61;100.00
24610;BME280;12758;47.890;11.694;2023-11-19T04:51:38;93558.59;;;7.51;100.00
24610;BME280;12758;47.890;11.694;2023-11-19T04:54:04;93566.44;;;7.61;100.00
24610;BME280;12758;47.890;11.694;2023-11-19T04:56:30;93575.00;;;7.63;100.00
24610;BME280;12758;47.890;11.694;2023-11-19T04:58:57;93567.22;;;7.79;100.00
24610;BME280;12758;47.890;11.694;2023-11-19T05:01:23;93581.50;;;7.53;100.00
24610;BME280;12758;47.890;11.694;2023-11-19T05:03:49;93578.66;;;7.84;100.00
24610;BME280;12758;47.890;11.694;2023-11-19T05:06:16;93582.34;;;8.06;100.00
24610;BME280;12758;47.890;11.694;2023-11-19T05:08:42;93577.06;;;8.18;100.00
24610;BME280;12758;47.890;11.694;2023-11-19T05:11:08;93580.75;;;7.87;100.00
24610;BME280;12758;47.890;11.694;2023-11-19T05:13:37;93581.97;;;7.46;100.00
24610;BME280;12758;47.890;11.694;2023-11-19T05:16:04;93581.03;;;8.12;100.00
24610;BME280;12758;47.890;11.694;2023-11-19T05:18:30;93579.13;;;7.86;100.00
24610;BME280;12758;47.890;11.694;2023-11-19T05:20:57;93581.44;;;8.66;100.00
24610;BME280;12758;47.890;11.694;2023-11-19T05:23:23;93583.47;;;8.86;100.00
24610;BME280;12758;47.890;11.694;2023-11-19T05:25:49;93582.00;;;8.89;100.00
24610;BME280;12758;47.890;11.694;2023-11-19T05:28:15;93588.16;;;9.07;100.00
24610;BME280;12758;47.890;11.694;2023-11-19T05:30:41;93572.94;;;8.94;100.00
24610;BME280;12758;47.890;11.694;2023-11-19T05:33:07;93591.50;;;8.57;100.00
24610;BME280;12758;47.890;11.694;2023-11-19T05:35:34;93592.38;;;8.96;100.00
24610;BME280;12758;47.890;11.694;2023-11-19T05:38:00;93594.97;;;9.22;100.00
24610;BME280;12758;47.890;11.694;2023-11-19T05:40:28;93603.47;;;9.03;100.00
24610;BME280;12758;47.890;11.694;2023-11-19T05:42:54;93596.16;;;8.95;100.00
24610;BME280;12758;47.890;11.694;2023-11-19T05:45:20;93594.22;;;9.04;100.00
24610;BME280;12758;47.890;11.694;2023-11-19T05:47:46;93593.34;;;9.21;100.00
24610;BME280;12758;47.890;11.694;2023-11-19T05:50:12;93600.25;;;9.18;100.00
24610;BME280;12758;47.890;11.694;2023-11-19T05:52:38;93599.72;;;8.78;100.00
24610;BME280;12758;47.890;11.694;2023-11-19T05:55:05;93608.28;;;8.97;100.00
24610;BME280;12758;47.890;11.694;2023-11-19T05:57:35;93604.69;;;9.14;100.00
24610;BME280;12758;47.890;11.694;2023-11-19T06:00:01;93600.97;;;9.27;100.00
24610;BME280;12758;47.890;11.694;2023-11-19T06:02:27;93601.81;;;9.19;100.00
24610;BME280;12758;47.890;11.694;2023-11-19T06:04:53;93614.22;;;9.20;100.00
24610;BME280;12758;47.890;11.694;2023-11-19T06:07:19;93603.03;;;8.92;100.00
24610;BME280;12758;47.890;11.694;2023-11-19T06:09:45;93608.91;;;8.94;100.00
24610;BME280;12758;47.890;11.694;2023-11-19T06:12:12;93604.69;;;9.14;100.00
24610;BME280;12758;47.890;11.694;2023-11-19T06:14:39;93609.09;;;9.27;100.00
24610;BME280;12758;47.890;11.694;2023-11-19T06:17:06;93618.63;;;9.33;100.00
24610;BME280;12758;47.890;11.694;2023-11-19T06:19:32;93613.72;;;9.27;100.00
24610;BME280;12758;47.890;11.694;2023-11-19T06:21:58;93613.31;;;8.52;100.00
24610;BME280;12758;47.890;11.694;2023-11-19T06:24:24;93624.19;;;8.99;100.00
24610;BME280;12758;47.890;11.694;2023-11-19T06:26:50;93618.13;;;9.02;100.00
24610;BME280;12758;47.890;11.694;2023-11-19T06:29:17;93623.53;;;9.02;100.00
24610;BME280;12758;47.890;11.694;2023-11-19T06:31:45;93616.59;;;8.83;100.00
24610;BME280;12758;47.890;11.694;2023-11-19T06:34:12;93610.06;;;8.84;100.00
24610;BME280;12758;47.890;11.694;2023-11-19T06:36:38;93628.22;;;8.75;100.00
24610;BME280;12758;47.890;11.694;2023-11-19T06:39:04;93632.13;;;9.04;100.00
24610;BME280;12758;47.890;11.694;2023-11-19T06:41:31;93621.66;;;8.94;100.00
24610;BME280;12758;47.890;11.694;2023-11-19T06:43:58;93617.19;;;8.98;100.00
24610;BME280;12758;47.890;11.694;2023-11-19T06:46:25;93621.94;;;9.01;100.00
24610;BME280;12758;47.890;11.694;2023-11-19T06:48:52;93602.84;;;9.06;100.00
24610;BME280;12758;47.890;11.694;2023-11-19T06:51:18;93607.50;;;8.88;100.00
24610;BME280;12758;47.890;11.694;2023-11-19T06:53:44;93621.94;;;9.01;100.00
24610;BME280;12758;47.890;11.694;2023-11-19T06:56:18;93617.78;;;9.12;100.00
24610;BME280;12758;47.890;11.694;2023-11-19T06:58:44;93625.44;;;9.10;100.00
24610;BME280;12758;47.890;11.694;2023-11-19T07:01:10;93626.78;;;8.86;100.00
24610;BME280;12758;47.890;11.694;2023-11-19T07:03:37;93629.41;;;9.13;100.00
24610;BME280;12758;47.890;11.694;2023-11-19T07:06:03;93631.22;;;8.82;100.00
24610;BME280;12758;47.890;11.694;2023-11-19T07:08:30;93626.50;;;8.62;100.00
24610;BME280;12758;47.890;11.694;2023-11-19T07:10:56;93621.66;;;8.94;100.00
24610;BME280;12758;47.890;11.694;2023-11-19T07:13:23;93622.88;;;9.05;100.00
24610;BME280;12758;47.890;11.694;2023-11-19T07:15:49;93624.38;;;8.85;100.00
24610;BME280;12758;47.890;11.694;2023-11-19T07:18:15;93642.66;;;8.97;100.00
24610;BME280;12758;47.890;11.694;2023-11-19T07:20:42;93638.91;;;8.63;100.00
24610;BME280;12758;47.890;11.694;2023-11-19T07:23:08;93638.16;;;9.18;100.00
24610;BME280;12758;47.890;11.694;2023-11-19T07:25:34;93642.66;;;8.97;100.00
24610;BME280;12758;47.890;11.694;2023-11-19T07:28:01;93648.53;;;9.07;100.00
24610;BME280;12758;47.890;11.694;2023-11-19T07:30:30;93659.91;;;8.66;100.00
24610;BME280;12758;47.890;11.694;2023-11-19T07:32:56;93651.97;;;8.44;100.00
24610;BME280;12758;47.890;11.694;2023-11-19T07:35:23;93650.34;;;8.86;100.00
24610;BME280;12758;47.890;11.694;2023-11-19T07:37:50;93666.28;;;8.70;100.00
24610;BME280;12758;47.890;11.694;2023-11-19T07:40:16;93653.44;;;9.14;100.00
24610;BME280;12758;47.890;11.694;2023-11-19T07:42:42;93666.03;;;9.10;100.00
24610;BME280;12758;47.890;11.694;2023-11-19T07:45:09;93662.38;;;9.06;100.00
24610;BME280;12758;47.890;11.694;2023-11-19T07:47:37;93650.94;;;8.92;100.00
24610;BME280;12758;47.890;11.694;2023-11-19T07:50:04;93658.72;;;9.02;100.00
24610;BME280;12758;47.890;11.694;2023-11-19T07:52:31;93657.00;;;8.89;100.00
24610;BME280;12758;47.890;11.694;2023-11-19T07:54:58;93655.53;;;9.08;100.00
24610;BME280;12758;47.890;11.694;2023-11-19T07:57:24;93655.53;;;9.08;100.00
24610;BME280;12758;47.890;11.694;2023-11-19T07:59:50;93665.91;;;9.45;100.00
24610;BME280;12758;47.890;11.694;2023-11-19T08:02:16;93665.06;;;9.53;100.00
24610;BME280;12758;47.890;11.694;2023-11-19T08:04:42;93648.63;;;9.28;100.00
24610;BME280;12758;47.890;11.694;2023-11-19T08:07:11;93656.84;;;9.41;100.00
24610;BME280;12758;47.890;11.694;2023-11-19T08:09:37;93645.00;;;9.54;100.00
24610;BME280;12758;47.890;11.694;2023-11-19T08:12:05;93657.56;;;9.20;100.00
24610;BME280;12758;47.890;11.694;2023-11-19T08:14:32;93669.81;;;9.18;100.00
24610;BME280;12758;47.890;11.694;2023-11-19T08:16:58;93657.75;;;9.15;100.00
24610;BME280;12758;47.890;11.694;2023-11-19T08:19:24;93665.25;;;9.48;100.00
24610;BME280;12758;47.890;11.694;2023-11-19T08:21:50;93655.22;;;9.78;100.00
24610;BME280;12758;47.890;11.694;2023-11-19T08:24:16;93653.81;;;9.72;100.00
24610;BME280;12758;47.890;11.694;2023-11-19T08:26:42;93668.44;;;9.50;100.00
24610;BME280;12758;47.890;11.694;2023-11-19T08:29:09;93674.59;;;9.59;100.00
24610;BME280;12758;47.890;11.694;2023-11-19T08:31:35;93663.56;;;9.35;100.00
24610;BME280;12758;47.890;11.694;2023-11-19T08:34:01;93671.06;;;9.67;100.00
24610;BME280;12758;47.890;11.694;2023-11-19T08:36:27;93672.94;;;9.75;100.00
24610;BME280;12758;47.890;11.694;2023-11-19T08:38:53;93686.88;;;9.18;100.00
24610;BME280;12758;47.890;11.694;2023-11-19T08:41:20;93673.31;;;9.65;100.00
24610;BME280;12758;47.890;11.694;2023-11-19T08:43:47;93678.81;;;9.77;100.00
24610;BME280;12758;47.890;11.694;2023-11-19T08:46:14;93683.22;;;9.61;100.00
24610;BME280;12758;47.890;11.694;2023-11-19T08:48:40;93680.34;;;9.66;100.00
24610;BME280;12758;47.890;11.694;2023-11-19T08:51:06;93678.28;;;9.93;100.00
24610;BME280;12758;47.890;11.694;2023-11-19T08:53:32;93683.94;;;9.41;100.00
24610;BME280;12758;47.890;11.694;2023-11-19T08:55:58;93675.41;;;9.21;100.00
24610;BME280;12758;47.890;11.694;2023-11-19T08:58:25;93683.69;;;9.63;100.00
24610;BME280;12758;47.890;11.694;2023-11-19T09:00:51;93673.94;;;9.24;100.00
24610;BME280;12758;47.890;11.694;2023-11-19T09:03:19;93681.91;;;9.67;100.00
24610;BME280;12758;47.890;11.694;2023-11-19T09:05:45;93685.75;;;9.66;100.00
24610;BME280;12758;47.890;11.694;2023-11-19T09:08:12;93676.63;;;9.71;100.00
24610;BME280;12758;47.890;11.694;2023-11-19T09:10:38;93671.63;;;9.82;100.00
24610;BME280;12758;47.890;11.694;2023-11-19T09:13:04;93680.34;;;9.66;100.00
24610;BME280;12758;47.890;11.694;2023-11-19T09:15:30;93677.16;;;9.64;100.00
24610;BME280;12758;47.890;11.694;2023-11-19T09:17:56;93664.31;;;10.03;100.00
24610;BME280;12758;47.890;11.694;2023-11-19T09:20:22;93660.22;;;9.67;100.00
24610;BME280;12758;47.890;11.694;2023-11-19T09:22:48;93671.69;;;9.73;100.00
24610;BME280;12758;47.890;11.694;2023-11-19T09:25:14;93674.81;;;9.84;100.00
24610;BME280;12758;47.890;11.694;2023-11-19T09:27:42;93676.38;;;9.85;100.00
24610;BME280;12758;47.890;11.694;2023-11-19T09:30:09;93679.31;;;9.79;100.00
24610;BME280;12758;47.890;11.694;2023-11-19T09:32:35;93682.13;;;10.13;100.00
24610;BME280;12758;47.890;11.694;2023-11-19T09:35:03;93683.50;;;9.68;100.00
24610;BME280;12758;47.890;11.694;2023-11-19T09:37:30;93687.22;;;9.85;100.00
24610;BME280;12758;47.890;11.694;2023-11-19T09:39:57;93693.22;;;9.99;100.00
24610;BME280;12758;47.890;11.694;2023-11-19T09:42:23;93685.41;;;9.97;100.00
24610;BME280;12758;47.890;11.694;2023-11-19T09:44:49;93688.91;;;9.68;100.00
24610;BME280;12758;47.890;11.694;2023-11-19T09:47:16;93687.50;;;9.92;100.00
24610;BME280;12758;47.890;11.694;2023-11-19T09:49:42;93683.13;;;9.78;100.00
24610;BME280;12758;47.890;11.694;2023-11-19T09:52:09;93685.28;;;9.94;100.00
24610;BME280;12758;47.890;11.694;2023-11-19T09:54:36;93682.53;;;9.73;100.00
24610;BME280;12758;47.890;11.694;2023-11-19T09:57:02;93673.22;;;9.83;100.00
24610;BME280;12758;47.890;11.694;2023-11-19T09:59:30;93672.66;;;9.68;100.00
24610;BME280;12758;47.890;11.694;2023-11-19T10:01:56;93685.31;;;9.85;100.00
24610;BME280;12758;47.890;11.694;2023-11-19T10:04:22;93680.94;;;10.22;100.00
24610;BME280;12758;47.890;11.694;2023-11-19T10:06:50;93663.19;;;10.04;100.00
24610;BME280;12758;47.890;11.694;2023-11-19T10:09:17;93666.69;;;10.34;100.00
24610;BME280;12758;47.890;11.694;2023-11-19T10:11:45;93666.81;;;10.38;100.00
24610;BME280;12758;47.890;11.694;2023-11-19T10:14:11;93670.56;;;10.24;100.00
24610;BME280;12758;47.890;11.694;2023-11-19T10:16:37;93671.91;;;9.89;100.00
24610;BME280;12758;47.890;11.694;2023-11-19T10:19:04;93661.06;;;9.89;100.00
24610;BME280;12758;47.890;11.694;2023-11-19T10:21:32;93669.31;;;10.43;100.00
24610;BME280;12758;47.890;11.694;2023-11-19T10:23:59;93659.47;;;9.88;100.00
24610;BME280;12758;47.890;11.694;2023-11-19T10:26:26;93657.28;;;10.32;100.00
24610;BME280;12758;47.890;11.694;2023-11-19T10:28:53;93663.38;;;10.29;100.00
24610;BME280;12758;47.890;11.694;2023-11-19T10:31:21;93651.28;;;10.17;100.00
24610;BME280;12758;47.890;11.694;2023-11-19T10:33:50;93648.44;;;10.14;100.00
24610;BME280;12758;47.890;11.694;2023-11-19T10:36:17;93653.78;;;10.01;100.00
24610;BME280;12758;47.890;11.694;2023-11-19T10:38:52;93640.19;;;10.10;100.00
24610;BME280;12758;47.890;11.694;2023-11-19T10:41:26;93647.09;;;10.29;100.00
24610;BME280;12758;47.890;11.694;2023-11-19T10:43:53;93642.41;;;9.87;100.00
24610;BME280;12758;47.890;11.694;2023-11-19T10:46:19;93651.22;;;10.35;100.00
24610;BME280;12758;47.890;11.694;2023-11-19T10:48:48;93639.94;;;10.45;100.00
24610;BME280;12758;47.890;11.694;2023-11-19T10:51:18;93638.63;;;10.51;100.00
24610;BME280;12758;47.890;11.694;2023-11-19T10:53:47;93645.22;;;10.62;100.00
24610;BME280;12758;47.890;11.694;2023-11-19T10:56:16;93639.03;;;10.41;100.00
24610;BME280;12758;47.890;11.694;2023-11-19T10:58:45;93636.09;;;10.46;100.00
24610;BME280;12758;47.890;11.694;2023-11-19T11:01:14;93637.84;;;10.51;100.00
24610;BME280;12758;47.890;11.694;2023-11-19T11:03:42;93627.09;;;10.33;100.00
24610;BME280;12758;47.890;11.694;2023-11-19T11:06:08;93626.44;;;10.57;100.00
24610;BME280;12758;47.890;11.694;2023-11-19T11:08:36;93625.22;;;10.67;100.00
24610;BME280;12758;47.890;11.694;2023-11-19T11:11:03;93629.59;;;10.17;100.00
24610;BME280;12758;47.890;11.694;2023-11-19T11:13:30;93614.44;;;10.91;100.00
24610;BME280;12758;47.890;11.694;2023-11-19T11:15:57;93615.22;;;10.80;100.00
24610;BME280;12758;47.890;11.694;2023-11-19T11:18:24;93613.06;;;10.52;100.00
24610;BME280;12758;47.890;11.694;2023-11-19T11:20:50;93619.56;;;11.05;100.00
24610;BME280;12758;47.890;11.694;2023-11-19T11:26:18;93611.50;;;10.96;100.00
24610;BME280;12758;47.890;11.694;2023-11-19T11:28:54;93610.47;;;10.89;100.00
24610;BME280;12758;47.890;11.694;2023-11-19T11:31:29;93610.06;;;11.11;100.00
24610;BME280;12758;47.890;11.694;2023-11-19T11:34:15;93598.94;;;10.92;100.00
24610;BME280;12758;47.890;11.694;2023-11-19T11:36:51;93601.88;;;10.87;100.00
24610;BME280;12758;47.890;11.694;2023-11-19T11:39:20;93600.28;;;10.53;100.00
24610;BME280;12758;47.890;11.694;2023-11-19T11:41:47;93615.59;;;10.36;100.00
24610;BME280;12758;47.890;11.694;2023-11-19T11:44:57;93616.03;;;10.92;100.00
24610;BME280;12758;47.890;11.694;2023-11-19T11:47:23;93609.78;;;10.80;100.00
24610;BME280;12758;47.890;11.694;2023-11-19T11:49:50;93599.66;;;11.13;100.00
24610;BME280;12758;47.890;11.694;2023-11-19T11:52:17;93607.09;;;10.92;100.00
24610;BME280;12758;47.890;11.694;2023-11-19T11:54:43;93609.53;;;10.85;100.00
24610;BME280;12758;47.890;11.694;2023-11-19T11:57:11;93597.84;;;11.30;100.00
24610;BME280;12758;47.890;11.694;2023-11-19T11:59:43;93594.91;;;10.65;100.00
24610;BME280;12758;47.890;11.694;2023-11-19T12:02:11;93594.03;;;10.40;100.00
24610;BME280;12758;47.890;11.694;2023-11-19T12:04:39;93590.94;;;10.62;100.00
24610;BME280;12758;47.890;11.694;2023-11-19T12:07:06;93590.25;;;10.65;100.00
24610;BME280;12758;47.890;11.694;2023-11-19T12:09:32;93588.25;;;10.75;100.00
24610;BME280;12758;47.890;11.694;2023-11-19T12:12:07;93580.69;;;10.80;100.00
24610;BME280;12758;47.890;11.694;2023-11-19T12:15:03;93588.22;;;10.08;100.00
24610;BME280;12758;47.890;11.694;2023-11-19T12:17:41;93590.41;;;10.69;100.00
24610;BME280;12758;47.890;11.694;2023-11-19T12:20:10;93589.34;;;10.61;100.00
24610;BME280;12758;47.890;11.694;2023-11-19T12:22:37;93596.19;;;10.80;100.00
24610;BME280;12758;47.890;11.694;2023-11-19T12:25:05;93593.94;;;10.82;100.00
24610;BME280;12758;47.890;11.694;2023-11-19T12:27:31;93593.75;;;10.99;100.00
24610;BME280;12758;47.890;11.694;2023-11-19T12:29:59;93594.09;;;11.10;100.00
24610;BME280;12758;47.890;11.694;2023-11-19T12:32:25;93600.34;;;11.35;100.00
24610;BME280;12758;47.890;11.694;2023-11-19T12:34:51;93589.22;;;11.03;100.00
24610;BME280;12758;47.890;11.694;2023-11-19T12:37:17;93583.34;;;11.13;100.00
24610;BME280;12758;47.890;11.694;2023-11-19T12:39:44;93591.50;;;11.13;100.00
24610;BME280;12758;47.890;11.694;2023-11-19T12:42:10;93584.44;;;10.88;100.00
24610;BME280;12758;47.890;11.694;2023-11-19T12:44:38;93589.91;;;11.00;100.00
24610;BME280;12758;47.890;11.694;2023-11-19T12:47:04;93587.22;;;11.12;100.00
24610;BME280;12758;47.890;11.694;2023-11-19T12:49:31;93587.81;;;10.85;100.00